Sardinia Vera — IBWV — position and weather

sailwx.info

Track history (hours):
 
Tides and Currents Weather Stations Pressure Air Temp Water Temp Dewpoint Dewpoint Depression Visibility Wind Speed Wind Dir Waves Ship Positions

Sardinia Vera

Last reported at 2016-Jun-25 11:09 UTC. Time now 2016-Jun-25 19:41 UTC.
Position N 43°13' E 009°20'.

Length 121 m; draft 5.6 m.

Type: Passenger vessel. MMSI: 247392000.

Date/timePositionNaut miles runAvg speedWind from/ knotsBaromVisibWave heightAir tempDewpointWater temp
2016-Jun-25 11:09N 43°13' E 009°20'1116.5
2016-Jun-25 10:31N 43°23' E 009°13'1616.6
2016-Jun-25 09:33N 43°36' E 009°03'1717.0
2016-Jun-25 08:33N 43°51' E 008°51'1717.0
2016-Jun-25 07:33N 44°05' E 008°38'1313.1
2016-Jun-25 06:33N 44°16' E 008°27'0 0.0
2016-Jun-25 05:33N 44°16' E 008°27'5 4.8
2016-Jun-25 04:33N 44°13' E 008°32'1615.6
2016-Jun-25 03:33N 43°59' E 008°42'1414.2
2016-Jun-25 02:33N 43°45' E 008°42'1515.1
2016-Jun-25 01:33N 43°40' E 009°02'1515.1
2016-Jun-25 00:33N 43°30' E 009°18'1515.1
2016-Jun-24 23:33N 43°19' E 009°33'1414.3
2016-Jun-24 22:33N 43°06' E 009°38'8 0.8
2016-Jun-24 11:33N 43°06' E 009°26'1716.9
2016-Jun-24 10:33N 43°20' E 009°15'1716.6
2016-Jun-24 09:33N 43°35' E 009°03'1716.9
2016-Jun-24 08:33N 43°49' E 008°51'1717.0
2016-Jun-24 07:33N 44°04' E 008°39'13 4.4
2016-Jun-24 04:33N 44°16' E 008°30'1615.8
2016-Jun-24 03:34N 44°02' E 008°42'1515.5
2016-Jun-24 02:33N 43°49' E 008°53'1414.2
2016-Jun-24 01:34N 43°35' E 008°50'3115.5
2016-Jun-23 23:33N 43°14' E 009°21'1615.3
2016-Jun-23 22:29N 43°03' E 009°37'15 0.7
2016-Jun-23 01:33N 42°55' E 009°55'1111.0
2016-Jun-23 00:33N 43°05' E 010°00'1111.2
2016-Jun-22 23:33N 43°16' E 010°04'1111.2
2016-Jun-22 22:33N 43°27' E 010°09'9 9.0
2016-Jun-22 21:33N 43°33' E 010°18'0 0.4
2016-Jun-22 20:33N 43°33' E 010°18'0 0.0
2016-Jun-22 19:33N 43°33' E 010°18'0 0.0
2016-Jun-22 18:33N 43°33' E 010°18'0 0.0
2016-Jun-22 17:33N 43°33' E 010°18'0 0.0
2016-Jun-22 16:33N 43°33' E 010°18'3 3.2
2016-Jun-22 15:33N 43°31' E 010°15'1615.8
2016-Jun-22 14:33N 43°17' E 010°06'1716.5
2016-Jun-22 13:33N 43°01' E 009°58'13 2.6
2016-Jun-22 08:29N 43°06' E 009°42'1617.1
2016-Jun-22 07:33N 43°18' E 009°57'1716.9
2016-Jun-22 06:34N 43°31' E 010°12'5 5.1
2016-Jun-22 05:33N 43°33' E 010°18'0 0.0
2016-Jun-22 04:33N 43°33' E 010°18'0 0.0
2016-Jun-22 03:33N 43°33' E 010°18'0 0.0
2016-Jun-22 02:33N 43°33' E 010°18'0 0.0
2016-Jun-22 01:33N 43°33' E 010°18'0 0.0
2016-Jun-22 00:33N 43°33' E 010°18'0 0.0
2016-Jun-21 23:33N 43°33' E 010°18'0 0.0
2016-Jun-21 22:34N 43°33' E 010°18'0 0.0
2016-Jun-21 21:33N 43°33' E 010°18'0 0.0
2016-Jun-21 20:33N 43°33' E 010°18'0 0.0
2016-Jun-21 19:33N 43°33' E 010°18'0 0.0
2016-Jun-21 18:33N 43°33' E 010°18'0 0.0
2016-Jun-21 17:33N 43°33' E 010°18'0 0.0
2016-Jun-21 16:33N 43°33' E 010°18'4 4.5
2016-Jun-21 15:33N 43°30' E 010°14'1716.7
2016-Jun-21 14:33N 43°15' E 010°05'1616.4
2016-Jun-21 13:33N 42°59' E 009°57'17 4.4
2016-Jun-21 09:33N 42°48' E 009°39'1917.0
2016-Jun-21 08:27N 43°01' E 009°58'1517.2
2016-Jun-21 07:33N 43°15' E 010°05'1716.8
2016-Jun-21 06:33N 43°31' E 010°13'5 2.3
2016-Jun-21 04:33N 43°33' E 010°18'0 0.0
2016-Jun-21 03:33N 43°33' E 010°18'0 0.0
2016-Jun-21 02:33N 43°33' E 010°18'0 0.0
2016-Jun-21 01:33N 43°33' E 010°18'0 0.0
2016-Jun-21 00:33N 43°33' E 010°18'0 0.0
2016-Jun-20 23:33N 43°33' E 010°18'0 0.0
2016-Jun-20 22:33N 43°33' E 010°18'0 0.0
2016-Jun-20 21:33N 43°33' E 010°18'0 0.0
2016-Jun-20 20:33N 43°33' E 010°18'0 0.0
2016-Jun-20 19:33N 43°33' E 010°18'0 0.0
2016-Jun-20 18:33N 43°33' E 010°18'0 0.0
2016-Jun-20 17:33N 43°33' E 010°18'0 0.0
2016-Jun-20 16:33N 43°33' E 010°18'8 7.7
2016-Jun-20 15:33N 43°27' E 010°12'1616.5
2016-Jun-20 14:34N 43°12' E 010°04'23 4.3
2016-Jun-20 09:21N 42°53' E 009°47'1316.7
2016-Jun-20 08:34N 43°03' E 009°59'1717.1
2016-Jun-20 07:33N 43°19' E 010°06'1515.1
2016-Jun-20 06:33N 43°32' E 010°16'2 1.9
2016-Jun-20 05:33N 43°33' E 010°18'0 0.0
2016-Jun-20 04:33N 43°33' E 010°18'0 0.0
2016-Jun-20 03:33N 43°33' E 010°18'0 0.0
2016-Jun-20 02:33N 43°33' E 010°18'0 0.0
2016-Jun-20 01:33N 43°33' E 010°18'0 0.0
2016-Jun-20 00:33N 43°33' E 010°18'0 0.0
2016-Jun-19 23:33N 43°33' E 010°18'0 0.0
2016-Jun-19 22:33N 43°33' E 010°18'0 0.0
2016-Jun-19 21:33N 43°33' E 010°18'0 0.0
2016-Jun-19 20:33N 43°33' E 010°18'0 0.0
2016-Jun-19 19:33N 43°33' E 010°18'0 0.0
2016-Jun-19 18:33N 43°33' E 010°18'0 0.0
2016-Jun-19 17:33N 43°33' E 010°18'2 1.8
2016-Jun-19 16:33N 43°32' E 010°16'1514.9
2016-Jun-19 15:33N 43°19' E 010°07'1616.3
2016-Jun-19 14:33N 43°03' E 009°59'1 0.2
2016-Jun-19 08:27N 43°05' E 009°60'1516.6
2016-Jun-19 07:31N 43°19' E 010°06'1414.9
2016-Jun-19 06:33N 43°32' E 010°15'2 2.5
2016-Jun-19 05:33N 43°33' E 010°18'0 0.0
2016-Jun-19 04:32N 43°33' E 010°18'0 0.0
2016-Jun-19 03:33N 43°33' E 010°18'0 0.0
2016-Jun-19 02:33N 43°33' E 010°18'0 0.0
2016-Jun-19 01:33N 43°33' E 010°18'0 0.0
2016-Jun-19 00:33N 43°33' E 010°18'0 0.0
2016-Jun-18 23:33N 43°33' E 010°18'0 0.0
2016-Jun-18 22:33N 43°33' E 010°18'0 0.0
2016-Jun-18 21:33N 43°33' E 010°18'0 0.0
2016-Jun-18 20:33N 43°33' E 010°18'0 0.0
2016-Jun-18 19:31N 43°33' E 010°18'8 7.8
2016-Jun-18 18:33N 43°27' E 010°12'1716.8
2016-Jun-18 17:34N 43°12' E 010°04'30 5.7
2016-Jun-18 12:16N 43°11' E 009°22'1416.1
2016-Jun-18 11:24N 43°23' E 009°13'1416.2
2016-Jun-18 10:33N 43°35' E 009°03'1616.5
2016-Jun-18 09:33N 43°49' E 008°52'1616.1
2016-Jun-18 08:33N 44°03' E 008°41'1615.6
2016-Jun-18 07:33N 44°16' E 008°29'1 1.2
2016-Jun-18 06:33N 44°16' E 008°27'1313.3
2016-Jun-18 05:34N 44°06' E 008°39'1717.4
2016-Jun-18 04:33N 43°51' E 008°51'1717.6
2016-Jun-18 03:34N 43°36' E 009°03'1817.4
2016-Jun-18 02:32N 43°20' E 009°15'36 7.0
2016-Jun-17 21:22N 43°01' E 009°58'1416.8
2016-Jun-17 20:33N 43°13' E 010°04'1716.6
2016-Jun-17 19:33N 43°29' E 010°11'6 6.3
2016-Jun-17 18:34N 43°33' E 010°18'0 0.0
2016-Jun-17 17:34N 43°33' E 010°18'1110.8
2016-Jun-17 16:34N 43°25' E 010°08'1716.8
2016-Jun-17 15:34N 43°14' E 009°51'1716.8
2016-Jun-17 14:33N 42°60' E 009°38'10 2.2
2016-Jun-17 10:10N 42°53' E 009°47'1016.2
2016-Jun-17 09:31N 42°60' E 009°57'1616.1
2016-Jun-17 08:33N 43°14' E 010°05'1211.6
2016-Jun-17 07:33N 43°25' E 010°10'9 9.0
2016-Jun-17 06:34N 43°32' E 010°17'1 1.0
2016-Jun-17 05:33N 43°33' E 010°18'0 0.0
2016-Jun-17 04:33N 43°33' E 010°18'0 0.0
2016-Jun-17 03:34N 43°33' E 010°18'0 0.0
2016-Jun-17 02:34N 43°33' E 010°18'0 0.0
2016-Jun-17 01:33N 43°33' E 010°18'0 0.0
2016-Jun-17 00:33N 43°33' E 010°18'0 0.0
2016-Jun-16 23:33N 43°33' E 010°18'0 0.0
2016-Jun-16 22:33N 43°33' E 010°18'0 0.0
2016-Jun-16 21:34N 43°33' E 010°18'0 0.0
2016-Jun-16 20:33N 43°33' E 010°18'0 0.0
2016-Jun-16 19:33N 43°33' E 010°18'0 0.0
2016-Jun-16 18:34N 43°33' E 010°18'0 0.0
2016-Jun-16 17:33N 43°33' E 010°18'0 0.0
2016-Jun-16 16:33N 43°33' E 010°18'1 1.0
2016-Jun-16 15:33N 43°32' E 010°17'1312.6
2016-Jun-16 14:33N 43°30' E 010°00'1616.4
2016-Jun-16 13:33N 43°38' E 009°40'1615.5
2016-Jun-16 12:33N 43°48' E 009°23'1615.7
2016-Jun-16 11:33N 43°56' E 009°05'1616.0
2016-Jun-16 10:33N 44°06' E 008°47'1413.5
2016-Jun-16 09:33N 44°14' E 008°32'4 3.9
2016-Jun-16 08:28N 44°16' E 008°27'0 0.0
2016-Jun-16 07:28N 44°16' E 008°27'0 0.0
2016-Jun-16 06:28N 44°16' E 008°27'0 0.0
2016-Jun-16 05:28N 44°16' E 008°27'0 0.0
2016-Jun-16 04:28N 44°16' E 008°27'0 0.0
2016-Jun-16 03:28N 44°16' E 008°27'0 0.0
2016-Jun-16 02:28N 44°16' E 008°27'0 0.0
2016-Jun-16 01:28N 44°16' E 008°27'0 0.0
2016-Jun-16 00:28N 44°16' E 008°27'0 0.0
2016-Jun-15 23:28N 44°16' E 008°27'0 0.0
2016-Jun-15 22:28N 44°16' E 008°27'0 0.0
2016-Jun-15 21:28N 44°16' E 008°27'0 0.0
2016-Jun-15 20:28N 44°16' E 008°27'0 0.0
2016-Jun-15 19:28N 44°16' E 008°27'0 0.0
2016-Jun-15 18:28N 44°16' E 008°27'0 0.0
2016-Jun-15 17:28N 44°16' E 008°27'0 0.0
2016-Jun-15 16:28N 44°16' E 008°27'0 0.0
2016-Jun-15 15:28N 44°16' E 008°27'0 0.0
2016-Jun-15 14:28N 44°16' E 008°27'0 0.0
2016-Jun-15 13:28N 44°16' E 008°27'0 0.0
2016-Jun-15 12:28N 44°16' E 008°27'0 0.0
2016-Jun-15 11:16N 44°16' E 008°27'  
Track history (hours):
 
Tides and Currents Weather Stations Pressure Air Temp Water Temp Dewpoint Dewpoint Depression Visibility Wind Speed Wind Dir Waves Ship Positions

Sardinia Vera

Last reported at 2016-Jun-25 11:09 UTC. Time now 2016-Jun-25 19:41 UTC.
Position N 43°13' E 009°20'.

Length 121 m; draft 5.6 m.

Type: Passenger vessel. MMSI: 247392000.

Date/timePositionNaut miles runAvg speedWind from/ knotsBaromVisibWave heightAir tempDewpointWater temp
2016-Jun-25 11:09N 43°13' E 009°20'1116.5
2016-Jun-25 10:31N 43°23' E 009°13'1616.6
2016-Jun-25 09:33N 43°36' E 009°03'1717.0
2016-Jun-25 08:33N 43°51' E 008°51'1717.0
2016-Jun-25 07:33N 44°05' E 008°38'1313.1
2016-Jun-25 06:33N 44°16' E 008°27'0 0.0
2016-Jun-25 05:33N 44°16' E 008°27'5 4.8
2016-Jun-25 04:33N 44°13' E 008°32'1615.6
2016-Jun-25 03:33N 43°59' E 008°42'1414.2
2016-Jun-25 02:33N 43°45' E 008°42'1515.1
2016-Jun-25 01:33N 43°40' E 009°02'1515.1
2016-Jun-25 00:33N 43°30' E 009°18'1515.1
2016-Jun-24 23:33N 43°19' E 009°33'1414.3
2016-Jun-24 22:33N 43°06' E 009°38'8 0.8
2016-Jun-24 11:33N 43°06' E 009°26'1716.9
2016-Jun-24 10:33N 43°20' E 009°15'1716.6
2016-Jun-24 09:33N 43°35' E 009°03'1716.9
2016-Jun-24 08:33N 43°49' E 008°51'1717.0
2016-Jun-24 07:33N 44°04' E 008°39'13 4.4
2016-Jun-24 04:33N 44°16' E 008°30'1615.8
2016-Jun-24 03:34N 44°02' E 008°42'1515.5
2016-Jun-24 02:33N 43°49' E 008°53'1414.2
2016-Jun-24 01:34N 43°35' E 008°50'3115.5
2016-Jun-23 23:33N 43°14' E 009°21'1615.3
2016-Jun-23 22:29N 43°03' E 009°37'15 0.7
2016-Jun-23 01:33N 42°55' E 009°55'1111.0
2016-Jun-23 00:33N 43°05' E 010°00'1111.2
2016-Jun-22 23:33N 43°16' E 010°04'1111.2
2016-Jun-22 22:33N 43°27' E 010°09'9 9.0
2016-Jun-22 21:33N 43°33' E 010°18'0 0.4
2016-Jun-22 20:33N 43°33' E 010°18'0 0.0
2016-Jun-22 19:33N 43°33' E 010°18'0 0.0
2016-Jun-22 18:33N 43°33' E 010°18'0 0.0
2016-Jun-22 17:33N 43°33' E 010°18'0 0.0
2016-Jun-22 16:33N 43°33' E 010°18'3 3.2
2016-Jun-22 15:33N 43°31' E 010°15'1615.8
2016-Jun-22 14:33N 43°17' E 010°06'1716.5
2016-Jun-22 13:33N 43°01' E 009°58'13 2.6
2016-Jun-22 08:29N 43°06' E 009°42'1617.1
2016-Jun-22 07:33N 43°18' E 009°57'1716.9
2016-Jun-22 06:34N 43°31' E 010°12'5 5.1
2016-Jun-22 05:33N 43°33' E 010°18'0 0.0
2016-Jun-22 04:33N 43°33' E 010°18'0 0.0
2016-Jun-22 03:33N 43°33' E 010°18'0 0.0
2016-Jun-22 02:33N 43°33' E 010°18'0 0.0
2016-Jun-22 01:33N 43°33' E 010°18'0 0.0
2016-Jun-22 00:33N 43°33' E 010°18'0 0.0
2016-Jun-21 23:33N 43°33' E 010°18'0 0.0
2016-Jun-21 22:34N 43°33' E 010°18'0 0.0
2016-Jun-21 21:33N 43°33' E 010°18'0 0.0
2016-Jun-21 20:33N 43°33' E 010°18'0 0.0
2016-Jun-21 19:33N 43°33' E 010°18'0 0.0
2016-Jun-21 18:33N 43°33' E 010°18'0 0.0
2016-Jun-21 17:33N 43°33' E 010°18'0 0.0
2016-Jun-21 16:33N 43°33' E 010°18'4 4.5
2016-Jun-21 15:33N 43°30' E 010°14'1716.7
2016-Jun-21 14:33N 43°15' E 010°05'1616.4
2016-Jun-21 13:33N 42°59' E 009°57'17 4.4
2016-Jun-21 09:33N 42°48' E 009°39'1917.0
2016-Jun-21 08:27N 43°01' E 009°58'1517.2
2016-Jun-21 07:33N 43°15' E 010°05'1716.8
2016-Jun-21 06:33N 43°31' E 010°13'5 2.3
2016-Jun-21 04:33N 43°33' E 010°18'0 0.0
2016-Jun-21 03:33N 43°33' E 010°18'0 0.0
2016-Jun-21 02:33N 43°33' E 010°18'0 0.0
2016-Jun-21 01:33N 43°33' E 010°18'0 0.0
2016-Jun-21 00:33N 43°33' E 010°18'0 0.0
2016-Jun-20 23:33N 43°33' E 010°18'0 0.0
2016-Jun-20 22:33N 43°33' E 010°18'0 0.0
2016-Jun-20 21:33N 43°33' E 010°18'0 0.0
2016-Jun-20 20:33N 43°33' E 010°18'0 0.0
2016-Jun-20 19:33N 43°33' E 010°18'0 0.0
2016-Jun-20 18:33N 43°33' E 010°18'0 0.0
2016-Jun-20 17:33N 43°33' E 010°18'0 0.0
2016-Jun-20 16:33N 43°33' E 010°18'8 7.7
2016-Jun-20 15:33N 43°27' E 010°12'1616.5
2016-Jun-20 14:34N 43°12' E 010°04'23 4.3
2016-Jun-20 09:21N 42°53' E 009°47'1316.7
2016-Jun-20 08:34N 43°03' E 009°59'1717.1
2016-Jun-20 07:33N 43°19' E 010°06'1515.1
2016-Jun-20 06:33N 43°32' E 010°16'2 1.9
2016-Jun-20 05:33N 43°33' E 010°18'0 0.0
2016-Jun-20 04:33N 43°33' E 010°18'0 0.0
2016-Jun-20 03:33N 43°33' E 010°18'0 0.0
2016-Jun-20 02:33N 43°33' E 010°18'0 0.0
2016-Jun-20 01:33N 43°33' E 010°18'0 0.0
2016-Jun-20 00:33N 43°33' E 010°18'0 0.0
2016-Jun-19 23:33N 43°33' E 010°18'0 0.0
2016-Jun-19 22:33N 43°33' E 010°18'0 0.0
2016-Jun-19 21:33N 43°33' E 010°18'0 0.0
2016-Jun-19 20:33N 43°33' E 010°18'0 0.0
2016-Jun-19 19:33N 43°33' E 010°18'0 0.0
2016-Jun-19 18:33N 43°33' E 010°18'0 0.0
2016-Jun-19 17:33N 43°33' E 010°18'2 1.8
2016-Jun-19 16:33N 43°32' E 010°16'1514.9
2016-Jun-19 15:33N 43°19' E 010°07'1616.3
2016-Jun-19 14:33N 43°03' E 009°59'1 0.2
2016-Jun-19 08:27N 43°05' E 009°60'1516.6
2016-Jun-19 07:31N 43°19' E 010°06'1414.9
2016-Jun-19 06:33N 43°32' E 010°15'2 2.5
2016-Jun-19 05:33N 43°33' E 010°18'0 0.0
2016-Jun-19 04:32N 43°33' E 010°18'0 0.0
2016-Jun-19 03:33N 43°33' E 010°18'0 0.0
2016-Jun-19 02:33N 43°33' E 010°18'0 0.0
2016-Jun-19 01:33N 43°33' E 010°18'0 0.0
2016-Jun-19 00:33N 43°33' E 010°18'0 0.0
2016-Jun-18 23:33N 43°33' E 010°18'0 0.0
2016-Jun-18 22:33N 43°33' E 010°18'0 0.0
2016-Jun-18 21:33N 43°33' E 010°18'0 0.0
2016-Jun-18 20:33N 43°33' E 010°18'0 0.0
2016-Jun-18 19:31N 43°33' E 010°18'8 7.8
2016-Jun-18 18:33N 43°27' E 010°12'1716.8
2016-Jun-18 17:34N 43°12' E 010°04'30 5.7
2016-Jun-18 12:16N 43°11' E 009°22'1416.1
2016-Jun-18 11:24N 43°23' E 009°13'1416.2
2016-Jun-18 10:33N 43°35' E 009°03'1616.5
2016-Jun-18 09:33N 43°49' E 008°52'1616.1
2016-Jun-18 08:33N 44°03' E 008°41'1615.6
2016-Jun-18 07:33N 44°16' E 008°29'1 1.2
2016-Jun-18 06:33N 44°16' E 008°27'1313.3
2016-Jun-18 05:34N 44°06' E 008°39'1717.4
2016-Jun-18 04:33N 43°51' E 008°51'1717.6
2016-Jun-18 03:34N 43°36' E 009°03'1817.4
2016-Jun-18 02:32N 43°20' E 009°15'36 7.0
2016-Jun-17 21:22N 43°01' E 009°58'1416.8
2016-Jun-17 20:33N 43°13' E 010°04'1716.6
2016-Jun-17 19:33N 43°29' E 010°11'6 6.3
2016-Jun-17 18:34N 43°33' E 010°18'0 0.0
2016-Jun-17 17:34N 43°33' E 010°18'1110.8
2016-Jun-17 16:34N 43°25' E 010°08'1716.8
2016-Jun-17 15:34N 43°14' E 009°51'1716.8
2016-Jun-17 14:33N 42°60' E 009°38'10 2.2
2016-Jun-17 10:10N 42°53' E 009°47'1016.2
2016-Jun-17 09:31N 42°60' E 009°57'1616.1
2016-Jun-17 08:33N 43°14' E 010°05'1211.6
2016-Jun-17 07:33N 43°25' E 010°10'9 9.0
2016-Jun-17 06:34N 43°32' E 010°17'1 1.0
2016-Jun-17 05:33N 43°33' E 010°18'0 0.0
2016-Jun-17 04:33N 43°33' E 010°18'0 0.0
2016-Jun-17 03:34N 43°33' E 010°18'0 0.0
2016-Jun-17 02:34N 43°33' E 010°18'0 0.0
2016-Jun-17 01:33N 43°33' E 010°18'0 0.0
2016-Jun-17 00:33N 43°33' E 010°18'0 0.0
2016-Jun-16 23:33N 43°33' E 010°18'0 0.0
2016-Jun-16 22:33N 43°33' E 010°18'0 0.0
2016-Jun-16 21:34N 43°33' E 010°18'0 0.0
2016-Jun-16 20:33N 43°33' E 010°18'0 0.0
2016-Jun-16 19:33N 43°33' E 010°18'0 0.0
2016-Jun-16 18:34N 43°33' E 010°18'0 0.0
2016-Jun-16 17:33N 43°33' E 010°18'0 0.0
2016-Jun-16 16:33N 43°33' E 010°18'1 1.0
2016-Jun-16 15:33N 43°32' E 010°17'1312.6
2016-Jun-16 14:33N 43°30' E 010°00'1616.4
2016-Jun-16 13:33N 43°38' E 009°40'1615.5
2016-Jun-16 12:33N 43°48' E 009°23'1615.7
2016-Jun-16 11:33N 43°56' E 009°05'1616.0
2016-Jun-16 10:33N 44°06' E 008°47'1413.5
2016-Jun-16 09:33N 44°14' E 008°32'4 3.9
2016-Jun-16 08:28N 44°16' E 008°27'0 0.0
2016-Jun-16 07:28N 44°16' E 008°27'0 0.0
2016-Jun-16 06:28N 44°16' E 008°27'0 0.0
2016-Jun-16 05:28N 44°16' E 008°27'0 0.0
2016-Jun-16 04:28N 44°16' E 008°27'0 0.0
2016-Jun-16 03:28N 44°16' E 008°27'0 0.0
2016-Jun-16 02:28N 44°16' E 008°27'0 0.0
2016-Jun-16 01:28N 44°16' E 008°27'0 0.0
2016-Jun-16 00:28N 44°16' E 008°27'0 0.0
2016-Jun-15 23:28N 44°16' E 008°27'0 0.0
2016-Jun-15 22:28N 44°16' E 008°27'0 0.0
2016-Jun-15 21:28N 44°16' E 008°27'0 0.0
2016-Jun-15 20:28N 44°16' E 008°27'0 0.0
2016-Jun-15 19:28N 44°16' E 008°27'0 0.0
2016-Jun-15 18:28N 44°16' E 008°27'0 0.0
2016-Jun-15 17:28N 44°16' E 008°27'0 0.0
2016-Jun-15 16:28N 44°16' E 008°27'0 0.0
2016-Jun-15 15:28N 44°16' E 008°27'0 0.0
2016-Jun-15 14:28N 44°16' E 008°27'0 0.0
2016-Jun-15 13:28N 44°16' E 008°27'0 0.0
2016-Jun-15 12:28N 44°16' E 008°27'0 0.0
2016-Jun-15 11:16N 44°16' E 008°27'  

Dump ship's entire track history